Time;durP1;ratioP1;P1;durP2;ratioP2;P2;SDS_P1;SDS_P2;PMS_P1;PMS_P2;Temp;Humidity;BMP_temperature;BMP_pressure;BME280_temperature;BME280_humidity;BME280_pressure;Samples;Min_cycle;Max_cycle;Signal;HPM_P1;HPM_P2
2023/01/28 00:00:25;;;;;;;2.22;1.20;;;;;;;;;;5023103;28;20041;-76
2023/01/28 00:02:51;;;;;;;2.40;1.27;;;;;;;;;;5020830;28;20037;-76
2023/01/28 00:05:17;;;;;;;1.60;1.00;;;;;;;;;;5023206;28;20147;-76
2023/01/28 00:07:43;;;;;;;1.33;1.00;;;;;;;;;;5018503;28;20039;-77
2023/01/28 00:10:09;;;;;;;1.40;0.88;;;;;;;;;;5018558;28;20044;-76
2023/01/28 00:12:35;;;;;;;2.47;1.00;;;;;;;;;;5023504;28;20454;-76
2023/01/28 00:15:01;;;;;;;1.92;1.02;;;;;;;;;;5022208;28;20026;-76
2023/01/28 00:17:27;;;;;;;1.13;0.90;;;;;;;;;;5017917;28;20024;-76
2023/01/28 00:19:53;;;;;;;1.92;1.00;;;;;;;;;;5014509;28;20033;-76
2023/01/28 00:22:20;;;;;;;2.50;1.40;;;;;;;;;;5011637;28;20033;-76
2023/01/28 00:24:46;;;;;;;1.50;0.90;;;;;;;;;;5026689;28;20045;-76
2023/01/28 00:27:12;;;;;;;1.40;1.27;;;;;;;;;;5014686;28;20506;-76
2023/01/28 00:29:38;;;;;;;1.13;0.98;;;;;;;;;;5021857;28;20038;-76
2023/01/28 00:32:04;;;;;;;2.30;1.10;;;;;;;;;;5020581;28;20025;-76
2023/01/28 00:34:30;;;;;;;2.75;1.10;;;;;;;;;;5019093;28;20022;-77
2023/01/28 00:36:56;;;;;;;0.93;0.77;;;;;;;;;;5007837;28;20404;-76
2023/01/28 00:39:24;;;;;;;1.45;0.98;;;;;;;;;;5022178;28;20028;-75
2023/01/28 00:41:50;;;;;;;3.40;1.65;;;;;;;;;;5031473;28;20032;-76
2023/01/28 00:44:16;;;;;;;1.52;1.05;;;;;;;;;;5016217;28;20030;-75
2023/01/28 00:46:42;;;;;;;1.77;0.88;;;;;;;;;;5014499;28;20032;-75
2023/01/28 00:49:07;;;;;;;1.42;1.08;;;;;;;;;;5013291;28;20056;-75
2023/01/28 00:51:34;;;;;;;1.33;0.70;;;;;;;;;;5011058;28;20087;-75
2023/01/28 00:54:00;;;;;;;2.83;0.95;;;;;;;;;;5018542;28;20111;-75
2023/01/28 00:56:26;;;;;;;1.48;0.95;;;;;;;;;;5011167;28;20024;-75
2023/01/28 00:58:52;;;;;;;3.00;1.25;;;;;;;;;;5007813;28;20030;-76
2023/01/28 01:01:22;;;;;;;0.90;0.80;;;;;;;;;;5018238;28;20121;-75
2023/01/28 01:04:01;;;;;;;0.95;0.70;;;;;;;;;;5029381;28;20041;-75
2023/01/28 01:06:27;;;;;;;1.25;0.98;;;;;;;;;;5015325;28;20437;-75
2023/01/28 01:08:53;;;;;;;0.82;0.73;;;;;;;;;;5019268;28;20033;-76
2023/01/28 01:11:19;;;;;;;1.63;0.70;;;;;;;;;;5020155;28;20029;-75
2023/01/28 01:13:45;;;;;;;1.00;0.60;;;;;;;;;;5018210;28;20045;-76
2023/01/28 01:16:23;;;;;;;1.45;0.98;;;;;;;;;;5016199;28;20112;-77
2023/01/28 01:18:51;;;;;;;1.25;1.00;;;;;;;;;;5017442;28;20036;-77
2023/01/28 01:21:18;;;;;;;0.60;0.60;;;;;;;;;;5015310;28;20045;-76
2023/01/28 01:23:44;;;;;;;0.70;0.70;;;;;;;;;;5024305;28;20055;-76
2023/01/28 01:26:10;;;;;;;1.30;0.77;;;;;;;;;;5013677;28;20033;-75
2023/01/28 01:28:37;;;;;;;2.03;0.90;;;;;;;;;;5016578;28;20022;-75
2023/01/28 01:31:04;;;;;;;1.17;0.82;;;;;;;;;;5010063;28;20030;-74
2023/01/28 01:33:31;;;;;;;1.25;0.88;;;;;;;;;;5008815;28;20025;-76
2023/01/28 01:35:57;;;;;;;0.98;0.80;;;;;;;;;;5015992;28;20083;-76
2023/01/28 01:38:23;;;;;;;1.70;0.60;;;;;;;;;;5007132;28;20482;-74
2023/01/28 01:40:49;;;;;;;1.67;0.70;;;;;;;;;;5011871;28;20113;-76
2023/01/28 01:43:16;;;;;;;0.60;0.60;;;;;;;;;;5021429;28;20036;-76
2023/01/28 01:45:44;;;;;;;1.10;0.90;;;;;;;;;;5017179;28;20057;-76
2023/01/28 01:48:15;;;;;;;0.93;0.85;;;;;;;;;;5014699;28;20034;-76
2023/01/28 01:50:41;;;;;;;;;;;;;;;;;;5015347;28;20034;-76
2023/01/28 01:53:09;;;;;;;0.73;0.60;;;;;;;;;;5011232;28;19913;-76
2023/01/28 01:55:38;;;;;;;1.42;0.90;;;;;;;;;;5021494;28;20021;-76
2023/01/28 01:58:06;;;;;;;1.67;1.00;;;;;;;;;;5012433;28;20028;-76
2023/01/28 02:00:32;;;;;;;2.15;1.40;;;;;;;;;;5017102;28;20415;-76
2023/01/28 02:02:58;;;;;;;1.10;0.73;;;;;;;;;;5031125;28;20044;-75
2023/01/28 02:05:24;;;;;;;0.80;0.80;;;;;;;;;;5021286;28;20029;-76
2023/01/28 02:07:53;;;;;;;1.52;0.85;;;;;;;;;;5015305;28;20030;-75
2023/01/28 02:10:20;;;;;;;0.82;0.70;;;;;;;;;;5013097;28;20520;-76
2023/01/28 02:12:48;;;;;;;0.90;0.90;;;;;;;;;;5019317;28;20037;-76
2023/01/28 02:15:19;;;;;;;0.77;0.70;;;;;;;;;;5014925;28;20034;-76
2023/01/28 02:17:46;;;;;;;0.73;0.73;;;;;;;;;;5010263;28;20037;-76
2023/01/28 02:20:13;;;;;;;0.93;0.60;;;;;;;;;;5018938;28;20041;-75
2023/01/28 02:22:48;;;;;;;1.58;0.98;;;;;;;;;;5010676;28;20040;-76
2023/01/28 02:25:33;;;;;;;4.07;0.77;;;;;;;;;;5012910;28;20039;-76
2023/01/28 02:28:13;;;;;;;0.85;0.75;;;;;;;;;;5013856;28;20451;-76
2023/01/28 02:30:41;;;;;;;1.27;0.77;;;;;;;;;;5015216;28;20089;-75
2023/01/28 02:33:14;;;;;;;2.33;0.82;;;;;;;;;;5017982;28;20030;-76
2023/01/28 02:35:42;;;;;;;0.77;0.63;;;;;;;;;;5009019;28;20048;-76
2023/01/28 02:38:10;;;;;;;1.10;0.95;;;;;;;;;;5023364;28;20030;-76
2023/01/28 02:43:35;;;;;;;0.77;0.70;;;;;;;;;;5010089;28;20701;-75
2023/01/28 02:48:48;;;;;;;1.42;0.70;;;;;;;;;;5023175;28;20111;-76
2023/01/28 02:51:21;;;;;;;0.90;0.70;;;;;;;;;;5013402;28;20035;-76
2023/01/28 02:53:51;;;;;;;2.03;0.70;;;;;;;;;;5012080;28;20036;-76
2023/01/28 02:56:28;;;;;;;1.63;0.50;;;;;;;;;;5013345;28;20421;-76
2023/01/28 02:59:32;;;;;;;0.75;0.60;;;;;;;;;;5012186;28;20054;-76
2023/01/28 03:02:19;;;;;;;1.02;0.63;;;;;;;;;;5009985;28;20044;-76
2023/01/28 03:05:07;;;;;;;0.73;0.73;;;;;;;;;;5016449;28;20099;-76
2023/01/28 03:07:35;;;;;;;1.25;0.75;;;;;;;;;;5018050;28;20078;-76
2023/01/28 03:10:05;;;;;;;0.68;0.68;;;;;;;;;;5016446;28;20025;-77
2023/01/28 03:37:59;;;;;;;0.88;0.60;;;;;;;;;;5014180;28;20096;-76
2023/01/28 03:40:25;;;;;;;0.95;0.80;;;;;;;;;;5017785;28;20010;-76
2023/01/28 03:42:52;;;;;;;1.33;0.68;;;;;;;;;;5021571;28;20112;-76
2023/01/28 03:45:20;;;;;;;1.17;0.63;;;;;;;;;;5022635;28;20029;-76
2023/01/28 03:47:46;;;;;;;0.63;0.60;;;;;;;;;;5011210;28;20506;-76
2023/01/28 03:50:12;;;;;;;1.30;1.13;;;;;;;;;;5019146;28;20022;-76
2023/01/28 03:52:38;;;;;;;1.90;0.85;;;;;;;;;;5017740;28;20026;-77
2023/01/28 03:55:12;;;;;;;1.73;0.90;;;;;;;;;;5014702;28;20478;-76
2023/01/28 03:57:38;;;;;;;0.77;0.57;;;;;;;;;;5014483;28;20432;-76
2023/01/28 04:00:05;;;;;;;0.68;0.63;;;;;;;;;;5007817;28;20111;-76
2023/01/28 04:02:31;;;;;;;0.93;0.70;;;;;;;;;;5027005;28;20038;-76
2023/01/28 04:04:57;;;;;;;0.68;0.60;;;;;;;;;;5017253;28;20038;-76
2023/01/28 04:07:23;;;;;;;0.90;0.75;;;;;;;;;;5012864;28;20022;-76
2023/01/28 04:09:49;;;;;;;1.73;0.80;;;;;;;;;;5009796;28;20048;-76
2023/01/28 04:12:15;;;;;;;2.75;0.60;;;;;;;;;;5019599;28;20474;-76
2023/01/28 04:14:41;;;;;;;0.43;0.43;;;;;;;;;;5019782;28;20029;-76
2023/01/28 04:17:09;;;;;;;0.77;0.63;;;;;;;;;;5014267;28;20496;-76
2023/01/28 04:19:36;;;;;;;1.20;0.75;;;;;;;;;;5014954;28;20451;-76
2023/01/28 04:22:04;;;;;;;1.27;0.70;;;;;;;;;;5012597;28;20030;-76
2023/01/28 04:24:30;;;;;;;3.08;0.80;;;;;;;;;;5008607;28;20485;-76
2023/01/28 04:26:56;;;;;;;1.17;0.90;;;;;;;;;;5013307;28;20057;-76
2023/01/28 04:29:22;;;;;;;0.82;0.65;;;;;;;;;;5009979;28;20116;-76
2023/01/28 04:31:48;;;;;;;0.77;0.60;;;;;;;;;;5014180;28;20026;-76
2023/01/28 04:34:14;;;;;;;0.90;0.57;;;;;;;;;;5013022;28;20032;-76
2023/01/28 04:36:40;;;;;;;2.15;0.70;;;;;;;;;;5022572;28;20045;-77
2023/01/28 04:39:06;;;;;;;0.43;0.43;;;;;;;;;;5013005;28;20014;-76
2023/01/28 04:41:32;;;;;;;1.00;0.60;;;;;;;;;;5025393;28;20033;-77
2023/01/28 04:43:58;;;;;;;0.80;0.57;;;;;;;;;;5016622;28;20033;-76
2023/01/28 04:46:24;;;;;;;0.52;0.52;;;;;;;;;;5023259;28;20552;-76
2023/01/28 04:48:50;;;;;;;0.85;0.50;;;;;;;;;;5015388;28;20029;-75
2023/01/28 04:51:16;;;;;;;0.70;0.70;;;;;;;;;;5020116;28;20091;-76
2023/01/28 04:53:42;;;;;;;1.02;0.68;;;;;;;;;;5005396;28;20037;-76
2023/01/28 04:56:07;;;;;;;1.20;0.70;;;;;;;;;;5016748;28;20018;-76
2023/01/28 04:58:33;;;;;;;0.93;0.75;;;;;;;;;;5019081;28;20096;-76
2023/01/28 05:01:00;;;;;;;1.48;0.60;;;;;;;;;;5014557;28;20069;-76
2023/01/28 05:03:26;;;;;;;0.65;0.40;;;;;;;;;;5014703;28;20022;-76
2023/01/28 05:05:52;;;;;;;0.50;0.50;;;;;;;;;;5021066;28;20021;-75
2023/01/28 05:08:18;;;;;;;0.80;0.65;;;;;;;;;;5018869;28;20022;-75
2023/01/28 05:10:44;;;;;;;0.50;0.50;;;;;;;;;;5012459;28;20049;-76
2023/01/28 05:13:10;;;;;;;0.60;0.50;;;;;;;;;;5025603;28;20025;-76
2023/01/28 05:15:36;;;;;;;0.73;0.50;;;;;;;;;;5019933;28;20553;-76
2023/01/28 05:18:02;;;;;;;0.70;0.70;;;;;;;;;;5017381;28;20077;-76
2023/01/28 05:20:28;;;;;;;0.98;0.80;;;;;;;;;;5018357;28;20021;-75
2023/01/28 05:22:56;;;;;;;1.13;0.70;;;;;;;;;;5021134;28;20094;-76
2023/01/28 05:25:22;;;;;;;1.67;0.77;;;;;;;;;;5020830;28;20251;-76
2023/01/28 05:27:52;;;;;;;0.60;0.60;;;;;;;;;;5011362;28;20041;-75
2023/01/28 05:30:21;;;;;;;0.68;0.60;;;;;;;;;;5018232;28;20090;-75
2023/01/28 05:32:47;;;;;;;0.70;0.70;;;;;;;;;;5024008;28;20444;-76
2023/01/28 05:35:13;;;;;;;0.93;0.80;;;;;;;;;;5013545;28;20016;-75
2023/01/28 05:37:39;;;;;;;1.55;0.70;;;;;;;;;;5021307;28;20064;-75
2023/01/28 05:40:05;;;;;;;0.60;0.60;;;;;;;;;;5016874;28;20400;-77
2023/01/28 05:42:31;;;;;;;1.75;0.80;;;;;;;;;;5010273;28;20091;-76
2023/01/28 05:44:57;;;;;;;0.75;0.70;;;;;;;;;;5010859;28;20034;-75
2023/01/28 05:47:23;;;;;;;0.50;0.50;;;;;;;;;;5020920;28;20026;-76
2023/01/28 05:49:49;;;;;;;0.55;0.50;;;;;;;;;;5020049;28;20059;-76
2023/01/28 05:52:15;;;;;;;1.10;0.88;;;;;;;;;;5020478;28;20084;-76
2023/01/28 05:54:41;;;;;;;1.52;0.82;;;;;;;;;;5017709;28;20030;-75
2023/01/28 05:57:07;;;;;;;1.92;0.55;;;;;;;;;;5019730;28;20025;-75
2023/01/28 05:59:33;;;;;;;2.03;0.88;;;;;;;;;;5020100;28;20053;-76
2023/01/28 06:01:58;;;;;;;2.50;0.60;;;;;;;;;;5017814;28;20477;-75
2023/01/28 06:04:25;;;;;;;1.35;0.80;;;;;;;;;;5011227;28;20513;-78
2023/01/28 06:06:50;;;;;;;1.38;1.05;;;;;;;;;;5021097;28;20116;-77
2023/01/28 06:09:16;;;;;;;0.70;0.65;;;;;;;;;;5015504;28;20240;-76
2023/01/28 06:11:44;;;;;;;1.30;1.00;;;;;;;;;;5018966;28;20025;-76
2023/01/28 06:14:10;;;;;;;1.15;0.70;;;;;;;;;;5013818;28;20512;-76
2023/01/28 06:16:36;;;;;;;1.85;0.82;;;;;;;;;;5017038;28;20025;-77
2023/01/28 06:19:02;;;;;;;1.30;0.95;;;;;;;;;;5013336;28;20018;-76
2023/01/28 06:21:28;;;;;;;0.95;0.80;;;;;;;;;;5012740;28;20025;-77
2023/01/28 06:23:54;;;;;;;1.10;0.80;;;;;;;;;;5013228;28;20045;-77
2023/01/28 06:26:20;;;;;;;1.35;0.95;;;;;;;;;;5021634;28;20017;-76
2023/01/28 06:28:46;;;;;;;0.85;0.80;;;;;;;;;;5012994;28;20063;-78
2023/01/28 06:31:12;;;;;;;1.88;0.85;;;;;;;;;;5014513;28;20080;-76
2023/01/28 06:33:38;;;;;;;1.05;0.90;;;;;;;;;;5018131;28;20026;-77
2023/01/28 06:36:05;;;;;;;0.70;0.68;;;;;;;;;;5016162;28;20656;-76
2023/01/28 06:38:31;;;;;;;0.75;0.60;;;;;;;;;;5019963;28;20355;-76
2023/01/28 06:40:58;;;;;;;0.88;0.63;;;;;;;;;;5010999;28;20029;-77
2023/01/28 06:43:26;;;;;;;1.20;0.63;;;;;;;;;;5016010;28;20049;-75
2023/01/28 06:45:53;;;;;;;0.70;0.65;;;;;;;;;;5012333;28;20027;-76
2023/01/28 06:48:19;;;;;;;3.33;0.93;;;;;;;;;;5018611;28;20025;-76
2023/01/28 06:50:46;;;;;;;0.90;0.90;;;;;;;;;;5013630;28;20390;-76
2023/01/28 06:53:12;;;;;;;1.67;1.02;;;;;;;;;;5018262;28;20033;-76
2023/01/28 06:55:38;;;;;;;1.63;1.10;;;;;;;;;;5022583;28;20038;-76
2023/01/28 06:58:04;;;;;;;2.17;1.35;;;;;;;;;;5020138;28;20561;-73
2023/01/28 07:00:30;;;;;;;1.10;1.00;;;;;;;;;;5019447;28;20046;-77
2023/01/28 07:02:56;;;;;;;2.03;1.00;;;;;;;;;;5019336;28;20037;-77
2023/01/28 07:05:22;;;;;;;3.67;1.38;;;;;;;;;;5010385;28;20057;-76
2023/01/28 07:07:48;;;;;;;2.00;1.13;;;;;;;;;;5011227;28;20037;-77
2023/01/28 07:10:14;;;;;;;2.35;1.00;;;;;;;;;;5014283;28;20033;-75
2023/01/28 07:12:40;;;;;;;1.75;1.10;;;;;;;;;;5015276;28;20036;-76
2023/01/28 07:15:07;;;;;;;2.33;1.20;;;;;;;;;;5010080;28;20033;-76
2023/01/28 07:17:33;;;;;;;2.58;1.10;;;;;;;;;;5015690;28;20021;-76
2023/01/28 07:19:59;;;;;;;1.52;1.27;;;;;;;;;;5010559;28;20143;-76
2023/01/28 07:22:25;;;;;;;1.60;1.02;;;;;;;;;;5010156;28;20021;-76
2023/01/28 07:24:51;;;;;;;1.50;1.00;;;;;;;;;;5015632;28;20756;-77
2023/01/28 07:27:17;;;;;;;1.42;1.02;;;;;;;;;;5027276;28;20033;-76
2023/01/28 07:29:43;;;;;;;2.88;1.10;;;;;;;;;;5012954;28;20033;-76
2023/01/28 07:32:09;;;;;;;0.90;0.75;;;;;;;;;;5010264;28;20029;-76
2023/01/28 07:34:38;;;;;;;1.52;1.05;;;;;;;;;;5010336;28;20026;-76
2023/01/28 07:37:05;;;;;;;2.03;1.15;;;;;;;;;;5018552;28;20033;-76
2023/01/28 07:39:31;;;;;;;1.15;1.00;;;;;;;;;;5013341;28;20025;-73
2023/01/28 07:41:57;;;;;;;1.92;1.20;;;;;;;;;;5011517;28;21677;-74
2023/01/28 07:44:23;;;;;;;2.63;1.20;;;;;;;;;;5014248;28;20479;-75
2023/01/28 07:46:49;;;;;;;1.50;1.10;;;;;;;;;;5028345;28;20036;-76
2023/01/28 07:49:17;;;;;;;3.08;1.45;;;;;;;;;;5020197;28;20476;-74
2023/01/28 07:51:45;;;;;;;1.63;1.20;;;;;;;;;;5012716;28;20029;-75
2023/01/28 07:54:12;;;;;;;2.55;1.40;;;;;;;;;;5011390;28;20065;-74
2023/01/28 07:56:37;;;;;;;1.13;0.90;;;;;;;;;;5021719;28;20018;-72
2023/01/28 07:59:03;;;;;;;1.10;0.90;;;;;;;;;;5013831;28;20327;-77
2023/01/28 08:01:29;;;;;;;2.22;1.00;;;;;;;;;;5005591;28;20414;-78
2023/01/28 08:03:55;;;;;;;1.48;1.02;;;;;;;;;;5007649;28;20501;-77
2023/01/28 08:06:21;;;;;;;2.97;1.13;;;;;;;;;;5021521;28;20631;-77
2023/01/28 08:08:47;;;;;;;3.15;1.20;;;;;;;;;;5009417;28;20450;-76
2023/01/28 08:11:13;;;;;;;1.63;0.93;;;;;;;;;;5016772;28;20036;-75
2023/01/28 08:13:42;;;;;;;1.90;0.98;;;;;;;;;;5024533;28;20490;-76
2023/01/28 08:16:08;;;;;;;2.17;1.08;;;;;;;;;;5019145;28;20022;-76
2023/01/28 08:18:34;;;;;;;0.82;0.75;;;;;;;;;;5008410;28;20081;-77
2023/01/28 08:21:00;;;;;;;0.88;0.82;;;;;;;;;;5014031;28;20026;-76
2023/01/28 08:23:26;;;;;;;1.45;1.15;;;;;;;;;;5020169;28;20036;-76
2023/01/28 08:25:52;;;;;;;1.63;1.15;;;;;;;;;;5013954;28;20041;-76
2023/01/28 08:28:19;;;;;;;1.42;0.95;;;;;;;;;;4997931;28;20397;-73
2023/01/28 08:30:45;;;;;;;1.58;1.05;;;;;;;;;;5017769;28;20046;-72
2023/01/28 08:33:12;;;;;;;1.63;0.90;;;;;;;;;;5013700;28;20047;-73
2023/01/28 08:35:38;;;;;;;1.38;0.80;;;;;;;;;;5008164;28;20053;-74
2023/01/28 08:38:05;;;;;;;1.15;0.90;;;;;;;;;;5025045;28;20565;-74
2023/01/28 08:40:31;;;;;;;1.70;0.90;;;;;;;;;;5029679;28;20021;-74
2023/01/28 08:42:57;;;;;;;1.42;0.90;;;;;;;;;;5010849;28;20417;-74
2023/01/28 08:45:24;;;;;;;2.00;1.17;;;;;;;;;;5029082;28;20295;-73
2023/01/28 08:47:57;;;;;;;1.20;0.88;;;;;;;;;;5028768;28;20025;-74
2023/01/28 08:50:24;;;;;;;0.95;0.80;;;;;;;;;;5029066;28;20033;-73
2023/01/28 08:52:54;;;;;;;2.03;1.17;;;;;;;;;;5029017;28;20029;-74
2023/01/28 08:55:20;;;;;;;1.50;1.10;;;;;;;;;;5028778;28;20057;-74
2023/01/28 08:57:46;;;;;;;2.33;1.00;;;;;;;;;;5029166;28;20029;-74
2023/01/28 09:00:12;;;;;;;1.52;0.85;;;;;;;;;;5028221;28;20098;-75
2023/01/28 09:02:38;;;;;;;1.27;0.82;;;;;;;;;;5027350;28;20021;-74
2023/01/28 09:05:05;;;;;;;1.45;1.10;;;;;;;;;;5026593;28;20099;-72
2023/01/28 09:07:34;;;;;;;1.13;0.80;;;;;;;;;;5027913;28;20021;-75
2023/01/28 09:09:59;;;;;;;1.15;0.88;;;;;;;;;;5027659;28;20026;-74
2023/01/28 09:12:26;;;;;;;1.45;0.82;;;;;;;;;;5031690;28;20040;-75
2023/01/28 09:14:52;;;;;;;1.92;0.95;;;;;;;;;;5027129;28;20033;-74
2023/01/28 09:17:18;;;;;;;0.82;0.65;;;;;;;;;;5027504;28;20485;-73
2023/01/28 09:19:44;;;;;;;1.08;0.90;;;;;;;;;;5025312;28;20033;-72
2023/01/28 09:22:11;;;;;;;1.00;0.73;;;;;;;;;;5018168;28;20386;-74
2023/01/28 09:24:37;;;;;;;1.20;0.90;;;;;;;;;;5024671;28;20034;-73
2023/01/28 09:27:03;;;;;;;1.52;0.70;;;;;;;;;;5014632;28;20028;-73
2023/01/28 09:29:29;;;;;;;0.93;0.77;;;;;;;;;;5023682;28;20124;-75
2023/01/28 09:31:55;;;;;;;1.33;1.00;;;;;;;;;;5025624;28;20948;-74
2023/01/28 09:34:21;;;;;;;0.60;0.60;;;;;;;;;;5021197;28;20466;-74
2023/01/28 09:36:46;;;;;;;2.22;1.52;;;;;;;;;;5015976;28;20029;-73
2023/01/28 09:39:12;;;;;;;0.60;0.60;;;;;;;;;;5027292;28;20167;-73
2023/01/28 09:41:48;;;;;;;1.05;0.80;;;;;;;;;;5031978;28;20028;-74
2023/01/28 09:44:24;;;;;;;1.13;0.75;;;;;;;;;;5047432;28;20447;-75
2023/01/28 09:46:50;;;;;;;0.70;0.70;;;;;;;;;;5017636;28;20030;-77
2023/01/28 09:49:38;;;;;;;1.73;1.10;;;;;;;;;;5023147;28;20076;-78
2023/01/28 09:52:04;;;;;;;0.70;0.70;;;;;;;;;;5010612;28;20609;-74
2023/01/28 09:54:36;;;;;;;0.80;0.80;;;;;;;;;;5019505;28;20029;-72
2023/01/28 09:57:05;;;;;;;1.23;0.70;;;;;;;;;;5016049;28;20026;-77
2023/01/28 09:59:34;;;;;;;1.33;0.73;;;;;;;;;;4973596;28;1112060;-77
2023/01/28 10:02:12;;;;;;;1.55;0.80;;;;;;;;;;5011990;28;20296;-77
2023/01/28 10:04:54;;;;;;;0.63;0.63;;;;;;;;;;5004630;28;20044;-77
2023/01/28 10:07:26;;;;;;;1.33;0.80;;;;;;;;;;5027437;28;20033;-77
2023/01/28 10:10:04;;;;;;;0.82;0.73;;;;;;;;;;5027600;28;20037;-78
2023/01/28 10:12:39;;;;;;;0.75;0.60;;;;;;;;;;5032078;28;20029;-77
2023/01/28 10:15:05;;;;;;;1.73;0.73;;;;;;;;;;5027343;28;20033;-77
2023/01/28 10:17:36;;;;;;;0.85;0.70;;;;;;;;;;5027774;28;20014;-77
2023/01/28 10:20:11;;;;;;;1.40;0.98;;;;;;;;;;5027418;28;20029;-76
2023/01/28 10:22:41;;;;;;;1.30;0.80;;;;;;;;;;5027145;28;20629;-77
2023/01/28 10:25:15;;;;;;;0.95;0.50;;;;;;;;;;5026916;28;20753;-77
2023/01/28 10:27:42;;;;;;;1.25;0.70;;;;;;;;;;5027619;28;20102;-77
2023/01/28 10:30:30;;;;;;;1.50;0.70;;;;;;;;;;5027001;28;20022;-77
2023/01/28 10:33:12;;;;;;;1.00;0.60;;;;;;;;;;5026232;28;20030;-76
2023/01/28 10:35:40;;;;;;;1.08;0.70;;;;;;;;;;5026934;28;20033;-77
2023/01/28 10:38:07;;;;;;;0.47;0.47;;;;;;;;;;5026818;28;20036;-76
2023/01/28 10:40:34;;;;;;;1.00;0.60;;;;;;;;;;5027026;28;20025;-77
2023/01/28 10:43:00;;;;;;;1.75;0.75;;;;;;;;;;5027171;28;20040;-77
2023/01/28 10:45:27;;;;;;;1.27;0.60;;;;;;;;;;5026899;28;20029;-77
2023/01/28 10:48:01;;;;;;;0.60;0.60;;;;;;;;;;5026998;28;20204;-77
2023/01/28 10:50:29;;;;;;;0.80;0.47;;;;;;;;;;5027061;28;20128;-77
2023/01/28 10:52:56;;;;;;;1.00;0.70;;;;;;;;;;5025953;28;20363;-77
2023/01/28 10:55:22;;;;;;;0.65;0.50;;;;;;;;;;5027152;28;20040;-77
2023/01/28 10:57:49;;;;;;;0.65;0.60;;;;;;;;;;5026744;28;20029;-77
2023/01/28 11:00:26;;;;;;;0.60;0.50;;;;;;;;;;5009038;28;20501;-78
2023/01/28 11:02:53;;;;;;;0.47;0.47;;;;;;;;;;5026488;28;20240;-77
2023/01/28 11:05:20;;;;;;;0.75;0.70;;;;;;;;;;5026214;28;20087;-77
2023/01/28 11:07:48;;;;;;;0.70;0.57;;;;;;;;;;5026867;28;20126;-77
2023/01/28 11:10:30;;;;;;;1.60;0.50;;;;;;;;;;5026686;28;20436;-76
2023/01/28 11:12:58;;;;;;;0.93;0.60;;;;;;;;;;5030385;28;20501;-76
2023/01/28 11:15:24;;;;;;;0.90;0.57;;;;;;;;;;5026261;28;20478;-78
2023/01/28 11:18:16;;;;;;;0.77;0.45;;;;;;;;;;5026150;28;20100;-78
2023/01/28 11:20:48;;;;;;;0.50;0.50;;;;;;;;;;5022101;28;20109;-77
2023/01/28 11:23:19;;;;;;;1.10;0.63;;;;;;;;;;5031087;28;20043;-77
2023/01/28 11:25:45;;;;;;;1.95;0.60;;;;;;;;;;5046690;28;20077;-78
2023/01/28 11:28:17;;;;;;;0.63;0.60;;;;;;;;;;5045919;28;20025;-78
2023/01/28 11:30:43;;;;;;;1.05;0.77;;;;;;;;;;5046282;28;20035;-78
2023/01/28 11:33:12;;;;;;;0.70;0.63;;;;;;;;;;5045662;28;20029;-78
2023/01/28 11:35:38;;;;;;;1.17;0.85;;;;;;;;;;5045820;28;20025;-78
2023/01/28 11:38:13;;;;;;;0.93;0.60;;;;;;;;;;5045660;28;20036;-77
2023/01/28 11:40:49;;;;;;;0.60;0.52;;;;;;;;;;5045734;28;20082;-78
2023/01/28 11:43:15;;;;;;;1.42;0.50;;;;;;;;;;5045908;28;20091;-78
2023/01/28 11:45:52;;;;;;;0.75;0.50;;;;;;;;;;5046017;28;20033;-78
2023/01/28 11:48:37;;;;;;;1.27;0.50;;;;;;;;;;5045685;28;20032;-77
2023/01/28 11:51:04;;;;;;;1.17;0.60;;;;;;;;;;5045649;28;20146;-77
2023/01/28 11:53:41;;;;;;;0.50;0.50;;;;;;;;;;5046040;28;20416;-77
2023/01/28 11:56:22;;;;;;;3.15;0.68;;;;;;;;;;5045442;28;20035;-77
2023/01/28 11:58:55;;;;;;;0.68;0.38;;;;;;;;;;5045901;28;20021;-77
2023/01/28 12:01:40;;;;;;;0.90;0.55;;;;;;;;;;5045481;28;20300;-77
2023/01/28 12:04:06;;;;;;;0.52;0.52;;;;;;;;;;5037508;28;20314;-77
2023/01/28 12:06:39;;;;;;;1.05;0.60;;;;;;;;;;5026080;28;20385;-77
2023/01/28 12:09:14;;;;;;;0.63;0.63;;;;;;;;;;5025359;28;20049;-78
2023/01/28 12:14:51;;;;;;;1.13;0.63;;;;;;;;;;5025996;28;20429;-78
2023/01/28 12:17:37;;;;;;;0.63;0.50;;;;;;;;;;5025409;28;20037;-77
2023/01/28 12:20:06;;;;;;;0.45;0.40;;;;;;;;;;4970908;28;20125;-77
2023/01/28 12:22:48;;;;;;;0.60;0.50;;;;;;;;;;5025822;28;20029;-77
2023/01/28 12:25:40;;;;;;;0.40;0.40;;;;;;;;;;5025962;28;20032;-77
2023/01/28 12:28:06;;;;;;;0.40;0.40;;;;;;;;;;4980863;28;20352;-77
2023/01/28 12:30:50;;;;;;;1.65;0.65;;;;;;;;;;5025757;28;20025;-77
2023/01/28 12:33:16;;;;;;;0.88;0.75;;;;;;;;;;5025855;28;20495;-77
2023/01/28 12:36:05;;;;;;;0.57;0.50;;;;;;;;;;5025961;28;20014;-77
2023/01/28 12:38:46;;;;;;;0.40;0.40;;;;;;;;;;5025880;28;20013;-77
2023/01/28 12:41:15;;;;;;;1.35;0.70;;;;;;;;;;5025422;28;20087;-78
2023/01/28 12:43:50;;;;;;;0.40;0.40;;;;;;;;;;5025580;28;20021;-78
2023/01/28 12:46:32;;;;;;;0.95;0.60;;;;;;;;;;5025285;28;20035;-76
2023/01/28 12:49:03;;;;;;;1.27;0.70;;;;;;;;;;5025534;28;20557;-76
2023/01/28 12:51:46;;;;;;;1.73;0.43;;;;;;;;;;5025733;28;20482;-77
2023/01/28 12:54:16;;;;;;;0.70;0.47;;;;;;;;;;5025246;28;20349;-78
2023/01/28 12:56:50;;;;;;;0.60;0.60;;;;;;;;;;5029558;28;20017;-77
2023/01/28 12:59:22;;;;;;;0.98;0.60;;;;;;;;;;5029047;28;20057;-76
2023/01/28 13:01:55;;;;;;;0.40;0.40;;;;;;;;;;5029107;28;20025;-77
2023/01/28 13:04:30;;;;;;;1.52;0.88;;;;;;;;;;5028949;28;20097;-76
2023/01/28 13:06:59;;;;;;;0.82;0.50;;;;;;;;;;5028553;28;20021;-77
2023/01/28 13:09:26;;;;;;;0.60;0.40;;;;;;;;;;5028760;28;20068;-76
2023/01/28 13:11:53;;;;;;;1.63;0.60;;;;;;;;;;5032741;28;20026;-76
2023/01/28 13:14:22;;;;;;;0.52;0.45;;;;;;;;;;5028226;28;20470;-77
2023/01/28 13:16:48;;;;;;;0.60;0.52;;;;;;;;;;5028900;28;20018;-76
2023/01/28 13:19:19;;;;;;;0.50;0.40;;;;;;;;;;5029219;28;20033;-77
2023/01/28 13:21:46;;;;;;;0.70;0.47;;;;;;;;;;5029108;28;20028;-77
2023/01/28 13:24:15;;;;;;;0.57;0.40;;;;;;;;;;5028685;28;20017;-77
2023/01/28 13:26:47;;;;;;;0.28;0.28;;;;;;;;;;5028363;28;20520;-77
2023/01/28 13:29:13;;;;;;;1.60;0.70;;;;;;;;;;5042609;28;20548;-76
2023/01/28 13:31:40;;;;;;;0.70;0.45;;;;;;;;;;5048187;28;20036;-77
2023/01/28 13:34:07;;;;;;;0.40;0.40;;;;;;;;;;5047805;28;20294;-77
2023/01/28 13:36:33;;;;;;;0.73;0.60;;;;;;;;;;5048137;28;20474;-77
2023/01/28 13:39:04;;;;;;;1.00;0.70;;;;;;;;;;5048329;28;20079;-77
2023/01/28 13:41:39;;;;;;;0.50;0.50;;;;;;;;;;5049068;28;20021;-77
2023/01/28 13:44:17;;;;;;;0.40;0.40;;;;;;;;;;5047949;28;20104;-78
2023/01/28 13:46:42;;;;;;;0.50;0.50;;;;;;;;;;5048256;28;20029;-77
2023/01/28 13:49:15;;;;;;;0.70;0.70;;;;;;;;;;5047678;28;20032;-77
2023/01/28 13:51:46;;;;;;;1.08;0.60;;;;;;;;;;5048122;28;20017;-76
2023/01/28 13:54:15;;;;;;;0.63;0.50;;;;;;;;;;5047730;28;20382;-77
2023/01/28 13:56:49;;;;;;;0.73;0.63;;;;;;;;;;5048413;28;20388;-76
2023/01/28 13:59:33;;;;;;;0.68;0.40;;;;;;;;;;5047843;28;20036;-77
2023/01/28 14:01:59;;;;;;;0.90;0.60;;;;;;;;;;5048167;28;20029;-77
2023/01/28 14:04:44;;;;;;;0.52;0.52;;;;;;;;;;5036906;28;20393;-77
2023/01/28 14:07:14;;;;;;;0.50;0.50;;;;;;;;;;5026223;28;20083;-77
2023/01/28 14:09:42;;;;;;;0.60;0.60;;;;;;;;;;5027522;28;20120;-77
2023/01/28 14:12:11;;;;;;;0.88;0.57;;;;;;;;;;5031785;28;20378;-77
2023/01/28 14:14:37;;;;;;;0.57;0.55;;;;;;;;;;5041542;28;20036;-77
2023/01/28 14:17:10;;;;;;;2.45;0.60;;;;;;;;;;5047614;28;20028;-76
2023/01/28 14:19:37;;;;;;;0.50;0.40;;;;;;;;;;5047269;28;20572;-76
2023/01/28 14:22:07;;;;;;;0.70;0.70;;;;;;;;;;5047409;28;20029;-77
2023/01/28 14:24:33;;;;;;;1.27;0.65;;;;;;;;;;5047691;28;20029;-78
2023/01/28 14:27:09;;;;;;;3.42;1.95;;;;;;;;;;5047567;28;20051;-78
2023/01/28 14:29:45;;;;;;;2.15;1.02;;;;;;;;;;5047189;28;20144;-77
2023/01/28 14:32:13;;;;;;;2.72;0.90;;;;;;;;;;5046976;28;20037;-77
2023/01/28 14:34:39;;;;;;;1.20;0.63;;;;;;;;;;5046944;28;20477;-78
2023/01/28 14:37:09;;;;;;;2.22;1.10;;;;;;;;;;5046885;28;20124;-77
2023/01/28 14:39:44;;;;;;;2.10;0.90;;;;;;;;;;5046799;28;20059;-77
2023/01/28 14:42:14;;;;;;;1.15;0.80;;;;;;;;;;5046694;28;20104;-77
2023/01/28 14:44:40;;;;;;;1.48;0.80;;;;;;;;;;5046728;28;20025;-77
2023/01/28 14:47:17;;;;;;;1.25;0.70;;;;;;;;;;5046804;28;20048;-77
2023/01/28 14:49:51;;;;;;;2.28;0.73;;;;;;;;;;5047251;28;20017;-77
2023/01/28 14:52:44;;;;;;;1.90;1.00;;;;;;;;;;5046491;28;20025;-77
2023/01/28 14:55:25;;;;;;;0.95;0.90;;;;;;;;;;5043004;28;20206;-77
2023/01/28 14:57:53;;;;;;;1.00;0.80;;;;;;;;;;5046518;28;20078;-77
2023/01/28 15:00:19;;;;;;;0.77;0.70;;;;;;;;;;5045994;28;20066;-77
2023/01/28 15:02:45;;;;;;;1.13;0.70;;;;;;;;;;5047048;28;20035;-77
2023/01/28 15:05:16;;;;;;;1.08;0.60;;;;;;;;;;5029190;28;20029;-77
2023/01/28 15:07:46;;;;;;;1.77;0.80;;;;;;;;;;5026826;28;20060;-76
2023/01/28 15:10:15;;;;;;;0.73;0.70;;;;;;;;;;5027092;28;20492;-76
2023/01/28 15:12:44;;;;;;;1.02;0.90;;;;;;;;;;5030373;28;20017;-76
2023/01/28 15:15:11;;;;;;;0.70;0.60;;;;;;;;;;5026110;28;20028;-76
2023/01/28 15:17:37;;;;;;;1.30;0.60;;;;;;;;;;5025986;28;20041;-77
2023/01/28 15:20:06;;;;;;;0.60;0.60;;;;;;;;;;5026420;28;20025;-76
2023/01/28 15:22:32;;;;;;;0.90;0.65;;;;;;;;;;5026619;28;20025;-76
2023/01/28 15:24:58;;;;;;;1.10;0.73;;;;;;;;;;5026616;28;20044;-77
2023/01/28 15:27:28;;;;;;;1.38;0.77;;;;;;;;;;5026005;28;20033;-77